sensor_id;sensor_type;location;lat;lon;timestamp;pressure;altitude;pressure_sealevel;temperature;humidity
81480;BME280;70893;52.500;5.456;2023-07-08T00:01:17;102073.38;;;18.30;64.89
81480;BME280;70893;52.500;5.456;2023-07-08T00:03:43;102069.31;;;18.28;64.96
81480;BME280;70893;52.500;5.456;2023-07-08T00:06:18;102053.78;;;18.28;64.99
81480;BME280;70893;52.500;5.456;2023-07-08T00:08:45;102062.25;;;18.27;64.88
81480;BME280;70893;52.500;5.456;2023-07-08T00:11:11;102054.34;;;18.25;64.99
81480;BME280;70893;52.500;5.456;2023-07-08T00:13:37;102050.00;;;18.24;64.31
81480;BME280;70893;52.500;5.456;2023-07-08T00:16:03;102050.53;;;18.26;64.24
81480;BME280;70893;52.500;5.456;2023-07-08T00:18:28;102051.34;;;18.27;63.82
81480;BME280;70893;52.500;5.456;2023-07-08T00:20:53;102052.16;;;18.27;64.10
81480;BME280;70893;52.500;5.456;2023-07-08T00:23:19;102042.63;;;18.25;63.96
81480;BME280;70893;52.500;5.456;2023-07-08T00:25:47;102049.47;;;18.22;64.28
81480;BME280;70893;52.500;5.456;2023-07-08T00:28:18;102043.75;;;18.24;63.59
81480;BME280;70893;52.500;5.456;2023-07-08T00:30:44;102043.75;;;18.24;64.17
81480;BME280;70893;52.500;5.456;2023-07-08T00:33:10;102045.94;;;18.22;64.18
81480;BME280;70893;52.500;5.456;2023-07-08T00:35:40;102053.31;;;18.21;64.10
81480;BME280;70893;52.500;5.456;2023-07-08T00:38:38;102045.41;;;18.19;63.85
81480;BME280;70893;52.500;5.456;2023-07-08T00:43:52;102052.53;;;18.15;63.84
81480;BME280;70893;52.500;5.456;2023-07-08T00:51:32;102037.31;;;18.09;64.80
81480;BME280;70893;52.500;5.456;2023-07-08T00:53:57;102034.06;;;18.07;64.25
81480;BME280;70893;52.500;5.456;2023-07-08T00:56:32;102033.25;;;18.07;64.53
81480;BME280;70893;52.500;5.456;2023-07-08T00:59:03;102026.19;;;18.06;64.58
81480;BME280;70893;52.500;5.456;2023-07-08T01:01:31;102027.03;;;18.01;64.60
81480;BME280;70893;52.500;5.456;2023-07-08T01:04:02;102021.34;;;17.97;65.22
81480;BME280;70893;52.500;5.456;2023-07-08T01:06:32;102024.88;;;17.98;64.34
81480;BME280;70893;52.500;5.456;2023-07-08T01:09:03;102021.09;;;17.94;64.08
81480;BME280;70893;52.500;5.456;2023-07-08T01:11:30;102020.81;;;17.95;64.83
81480;BME280;70893;52.500;5.456;2023-07-08T01:13:56;102019.75;;;17.91;64.66
81480;BME280;70893;52.500;5.456;2023-07-08T01:16:23;102018.69;;;17.87;64.65
81480;BME280;70893;52.500;5.456;2023-07-08T01:18:49;102015.97;;;17.87;64.92
81480;BME280;70893;52.500;5.456;2023-07-08T01:21:36;102010.81;;;17.86;64.09
81480;BME280;70893;52.500;5.456;2023-07-08T01:24:05;102015.47;;;17.85;64.66
81480;BME280;70893;52.500;5.456;2023-07-08T01:26:33;102007.03;;;17.82;64.75
81480;BME280;70893;52.500;5.456;2023-07-08T01:29:01;102006.22;;;17.81;64.52
81480;BME280;70893;52.500;5.456;2023-07-08T01:31:26;102014.66;;;17.80;64.59
81480;BME280;70893;52.500;5.456;2023-07-08T01:33:52;102001.88;;;17.75;64.71
81480;BME280;70893;52.500;5.456;2023-07-08T01:36:18;101990.72;;;17.71;64.81
81480;BME280;70893;52.500;5.456;2023-07-08T01:38:45;101999.22;;;17.70;64.94
81480;BME280;70893;52.500;5.456;2023-07-08T01:41:12;101989.97;;;17.66;65.29
81480;BME280;70893;52.500;5.456;2023-07-08T01:43:38;101995.16;;;17.62;65.42
81480;BME280;70893;52.500;5.456;2023-07-08T01:46:04;101989.19;;;17.60;65.64
81480;BME280;70893;52.500;5.456;2023-07-08T01:48:37;101989.50;;;17.53;65.19
81480;BME280;70893;52.500;5.456;2023-07-08T01:51:05;101982.13;;;17.54;65.82
81480;BME280;70893;52.500;5.456;2023-07-08T01:53:39;101990.31;;;17.54;65.92
81480;BME280;70893;52.500;5.456;2023-07-08T01:56:08;101983.28;;;17.48;65.93
81480;BME280;70893;52.500;5.456;2023-07-08T01:58:34;101981.41;;;17.43;65.67
81480;BME280;70893;52.500;5.456;2023-07-08T02:01:00;101982.50;;;17.42;65.57
81480;BME280;70893;52.500;5.456;2023-07-08T02:03:26;101973.00;;;17.40;65.39
81480;BME280;70893;52.500;5.456;2023-07-08T02:05:52;101975.47;;;17.36;65.74
81480;BME280;70893;52.500;5.456;2023-07-08T02:08:17;101984.47;;;17.31;66.12
81480;BME280;70893;52.500;5.456;2023-07-08T02:10:46;101980.38;;;17.29;66.76
81480;BME280;70893;52.500;5.456;2023-07-08T02:13:11;101965.44;;;17.26;65.80
81480;BME280;70893;52.500;5.456;2023-07-08T02:15:36;101971.19;;;17.25;66.88
81480;BME280;70893;52.500;5.456;2023-07-08T02:18:02;101970.38;;;17.24;66.09
81480;BME280;70893;52.500;5.456;2023-07-08T02:20:27;101969.31;;;17.20;66.84
81480;BME280;70893;52.500;5.456;2023-07-08T02:22:52;101956.25;;;17.17;66.48
81480;BME280;70893;52.500;5.456;2023-07-08T02:25:18;101953.00;;;17.15;66.28
81480;BME280;70893;52.500;5.456;2023-07-08T02:27:43;101957.63;;;17.15;66.19
81480;BME280;70893;52.500;5.456;2023-07-08T02:30:09;101957.38;;;17.11;66.43
81480;BME280;70893;52.500;5.456;2023-07-08T02:32:35;101949.22;;;17.11;66.22
81480;BME280;70893;52.500;5.456;2023-07-08T02:35:04;101940.25;;;17.10;66.26
81480;BME280;70893;52.500;5.456;2023-07-08T02:37:29;101944.59;;;17.06;66.85
81480;BME280;70893;52.500;5.456;2023-07-08T02:39:55;101944.09;;;17.04;67.20
81480;BME280;70893;52.500;5.456;2023-07-08T02:42:21;101941.09;;;17.01;67.51
81480;BME280;70893;52.500;5.456;2023-07-08T02:44:46;101943.59;;;16.97;67.05
81480;BME280;70893;52.500;5.456;2023-07-08T02:47:12;101938.72;;;16.94;67.72
81480;BME280;70893;52.500;5.456;2023-07-08T02:49:37;101939.53;;;16.89;67.64
81480;BME280;70893;52.500;5.456;2023-07-08T02:52:03;101933.84;;;16.86;67.74
81480;BME280;70893;52.500;5.456;2023-07-08T02:54:28;101932.47;;;16.83;67.48
81480;BME280;70893;52.500;5.456;2023-07-08T02:56:54;101930.88;;;16.82;67.46
81480;BME280;70893;52.500;5.456;2023-07-08T02:59:19;101934.16;;;16.79;67.90
81480;BME280;70893;52.500;5.456;2023-07-08T03:01:44;101933.59;;;16.77;67.42
81480;BME280;70893;52.500;5.456;2023-07-08T03:04:12;101928.16;;;16.72;67.42
81480;BME280;70893;52.500;5.456;2023-07-08T03:06:42;101930.34;;;16.70;67.39
81480;BME280;70893;52.500;5.456;2023-07-08T03:09:08;101931.44;;;16.69;67.57
81480;BME280;70893;52.500;5.456;2023-07-08T03:11:35;101931.19;;;16.65;68.02
81480;BME280;70893;52.500;5.456;2023-07-08T03:14:01;101929.03;;;16.62;67.92
81480;BME280;70893;52.500;5.456;2023-07-08T03:16:27;101930.38;;;16.60;68.39
81480;BME280;70893;52.500;5.456;2023-07-08T03:18:52;101925.22;;;16.58;68.12
81480;BME280;70893;52.500;5.456;2023-07-08T03:21:18;101921.69;;;16.58;68.17
81480;BME280;70893;52.500;5.456;2023-07-08T03:23:44;101922.50;;;16.58;67.81
81480;BME280;70893;52.500;5.456;2023-07-08T03:26:18;101925.50;;;16.57;67.79
81480;BME280;70893;52.500;5.456;2023-07-08T03:28:45;101930.13;;;16.56;68.08
81480;BME280;70893;52.500;5.456;2023-07-08T03:31:10;101923.06;;;16.55;67.58
81480;BME280;70893;52.500;5.456;2023-07-08T03:33:36;101926.06;;;16.54;68.20
81480;BME280;70893;52.500;5.456;2023-07-08T03:36:03;101928.25;;;16.52;67.53
81480;BME280;70893;52.500;5.456;2023-07-08T03:38:28;101920.13;;;16.46;68.22
81480;BME280;70893;52.500;5.456;2023-07-08T03:40:54;101927.72;;;16.44;68.38
81480;BME280;70893;52.500;5.456;2023-07-08T03:43:19;101922.03;;;16.41;68.46
81480;BME280;70893;52.500;5.456;2023-07-08T03:45:45;101924.47;;;16.37;68.24
81480;BME280;70893;52.500;5.456;2023-07-08T03:48:11;101920.16;;;16.36;68.60
81480;BME280;70893;52.500;5.456;2023-07-08T03:50:37;101925.03;;;16.34;68.75
81480;BME280;70893;52.500;5.456;2023-07-08T03:53:02;101920.16;;;16.31;68.31
81480;BME280;70893;52.500;5.456;2023-07-08T03:55:28;101922.06;;;16.31;68.74
81480;BME280;70893;52.500;5.456;2023-07-08T03:57:54;101928.56;;;16.30;69.20
81480;BME280;70893;52.500;5.456;2023-07-08T04:00:19;101929.69;;;16.29;69.49
81480;BME280;70893;52.500;5.456;2023-07-08T04:02:48;101932.66;;;16.27;68.75
81480;BME280;70893;52.500;5.456;2023-07-08T04:05:18;101936.19;;;16.28;69.04
81480;BME280;70893;52.500;5.456;2023-07-08T04:07:44;101940.25;;;16.25;67.70
81480;BME280;70893;52.500;5.456;2023-07-08T04:10:10;101933.75;;;16.26;68.37
81480;BME280;70893;52.500;5.456;2023-07-08T04:12:36;101938.91;;;16.28;69.12
81480;BME280;70893;52.500;5.456;2023-07-08T04:15:03;101942.72;;;16.27;69.02
81480;BME280;70893;52.500;5.456;2023-07-08T04:17:29;101938.38;;;16.25;68.67
81480;BME280;70893;52.500;5.456;2023-07-08T04:19:54;101939.19;;;16.26;68.42
81480;BME280;70893;52.500;5.456;2023-07-08T04:22:22;101944.88;;;16.30;68.76
81480;BME280;70893;52.500;5.456;2023-07-08T04:24:47;101940.25;;;16.30;69.00
81480;BME280;70893;52.500;5.456;2023-07-08T04:27:16;101942.97;;;16.30;69.29
81480;BME280;70893;52.500;5.456;2023-07-08T04:29:43;101939.44;;;16.30;69.03
81480;BME280;70893;52.500;5.456;2023-07-08T04:32:09;101941.09;;;16.31;69.06
81480;BME280;70893;52.500;5.456;2023-07-08T04:34:34;101940.78;;;16.32;68.39
81480;BME280;70893;52.500;5.456;2023-07-08T04:36:59;101948.69;;;16.34;68.65
81480;BME280;70893;52.500;5.456;2023-07-08T04:39:26;101945.69;;;16.35;69.10
81480;BME280;70893;52.500;5.456;2023-07-08T04:41:52;101938.38;;;16.36;68.83
81480;BME280;70893;52.500;5.456;2023-07-08T04:44:17;101941.59;;;16.38;68.48
81480;BME280;70893;52.500;5.456;2023-07-08T04:46:49;101934.53;;;16.42;69.24
81480;BME280;70893;52.500;5.456;2023-07-08T04:49:16;101931.81;;;16.42;68.24
81480;BME280;70893;52.500;5.456;2023-07-08T04:51:42;101937.78;;;16.49;68.48
81480;BME280;70893;52.500;5.456;2023-07-08T04:54:07;101938.00;;;16.53;68.63
81480;BME280;70893;52.500;5.456;2023-07-08T04:56:42;101937.47;;;16.56;68.23
81480;BME280;70893;52.500;5.456;2023-07-08T04:59:09;101935.56;;;16.61;68.22
81480;BME280;70893;52.500;5.456;2023-07-08T05:01:34;101934.69;;;16.66;67.15
81480;BME280;70893;52.500;5.456;2023-07-08T05:04:00;101935.78;;;16.70;67.13
81480;BME280;70893;52.500;5.456;2023-07-08T05:06:27;101930.06;;;16.77;68.04
81480;BME280;70893;52.500;5.456;2023-07-08T05:08:53;101937.94;;;16.83;67.46
81480;BME280;70893;52.500;5.456;2023-07-08T05:11:18;101933.28;;;16.89;67.12
81480;BME280;70893;52.500;5.456;2023-07-08T05:13:43;101934.06;;;16.95;66.71
81480;BME280;70893;52.500;5.456;2023-07-08T05:16:09;101929.97;;;16.97;67.05
81480;BME280;70893;52.500;5.456;2023-07-08T05:18:34;101938.91;;;17.03;66.71
81480;BME280;70893;52.500;5.456;2023-07-08T05:21:01;101933.72;;;17.06;65.89
81480;BME280;70893;52.500;5.456;2023-07-08T05:23:28;101936.19;;;17.08;65.78
81480;BME280;70893;52.500;5.456;2023-07-08T05:25:54;101935.88;;;17.15;66.17
81480;BME280;70893;52.500;5.456;2023-07-08T05:28:19;101935.03;;;17.19;64.71
81480;BME280;70893;52.500;5.456;2023-07-08T05:30:46;101934.44;;;17.27;65.65
81480;BME280;70893;52.500;5.456;2023-07-08T05:33:12;101930.56;;;17.33;65.44
81480;BME280;70893;52.500;5.456;2023-07-08T05:35:37;101928.56;;;17.44;65.88
81480;BME280;70893;52.500;5.456;2023-07-08T05:38:03;101930.75;;;17.47;65.08
81480;BME280;70893;52.500;5.456;2023-07-08T05:40:28;101933.72;;;17.51;65.34
81480;BME280;70893;52.500;5.456;2023-07-08T05:42:53;101933.13;;;17.54;64.84
81480;BME280;70893;52.500;5.456;2023-07-08T05:45:19;101934.16;;;17.63;64.03
81480;BME280;70893;52.500;5.456;2023-07-08T05:47:44;101936.84;;;17.68;64.18
81480;BME280;70893;52.500;5.456;2023-07-08T05:50:10;101934.03;;;17.79;64.21
81480;BME280;70893;52.500;5.456;2023-07-08T05:52:35;101930.50;;;17.83;64.15
81480;BME280;70893;52.500;5.456;2023-07-08T05:55:00;101929.63;;;17.88;63.38
81480;BME280;70893;52.500;5.456;2023-07-08T05:57:26;101923.31;;;17.92;63.64
81480;BME280;70893;52.500;5.456;2023-07-08T05:59:51;101920.59;;;17.92;62.75
81480;BME280;70893;52.500;5.456;2023-07-08T06:02:18;101917.53;;;17.99;63.33
81480;BME280;70893;52.500;5.456;2023-07-08T06:04:45;101918.28;;;18.05;62.86
81480;BME280;70893;52.500;5.456;2023-07-08T06:07:10;101928.84;;;18.11;62.50
81480;BME280;70893;52.500;5.456;2023-07-08T06:09:35;101928.16;;;18.25;62.61
81480;BME280;70893;52.500;5.456;2023-07-08T06:12:01;101927.25;;;18.34;61.56
81480;BME280;70893;52.500;5.456;2023-07-08T06:14:27;101924.41;;;18.45;62.43
81480;BME280;70893;52.500;5.456;2023-07-08T06:16:53;101922.09;;;18.57;61.98
81480;BME280;70893;52.500;5.456;2023-07-08T06:19:20;101917.81;;;18.70;61.60
81480;BME280;70893;52.500;5.456;2023-07-08T06:21:45;101916.13;;;18.79;61.74
81480;BME280;70893;52.500;5.456;2023-07-08T06:24:11;101919.19;;;18.91;60.91
81480;BME280;70893;52.500;5.456;2023-07-08T06:26:36;101919.88;;;19.02;61.84
81480;BME280;70893;52.500;5.456;2023-07-08T06:29:02;101916.22;;;19.12;61.19
81480;BME280;70893;52.500;5.456;2023-07-08T06:31:28;101906.94;;;19.26;60.57
81480;BME280;70893;52.500;5.456;2023-07-08T06:33:53;101914.69;;;19.57;60.19
81480;BME280;70893;52.500;5.456;2023-07-08T06:36:19;101904.00;;;20.21;57.94
81480;BME280;70893;52.500;5.456;2023-07-08T06:38:44;101913.06;;;20.86;54.92
81480;BME280;70893;52.500;5.456;2023-07-08T06:41:10;101905.03;;;21.03;54.32
81480;BME280;70893;52.500;5.456;2023-07-08T06:43:35;101901.97;;;21.63;51.97
81480;BME280;70893;52.500;5.456;2023-07-08T06:46:01;101907.47;;;21.72;51.91
81480;BME280;70893;52.500;5.456;2023-07-08T06:48:26;101904.66;;;22.17;52.01
81480;BME280;70893;52.500;5.456;2023-07-08T06:50:51;101912.06;;;22.65;50.00
81480;BME280;70893;52.500;5.456;2023-07-08T06:53:17;101908.88;;;22.72;49.45
81480;BME280;70893;52.500;5.456;2023-07-08T06:55:44;101896.66;;;23.04;49.16
81480;BME280;70893;52.500;5.456;2023-07-08T06:58:10;101902.59;;;23.50;48.24
81480;BME280;70893;52.500;5.456;2023-07-08T07:00:35;101905.81;;;23.61;47.53
81480;BME280;70893;52.500;5.456;2023-07-08T07:03:00;101907.66;;;24.04;46.75
81480;BME280;70893;52.500;5.456;2023-07-08T07:05:26;101902.66;;;23.97;46.35
81480;BME280;70893;52.500;5.456;2023-07-08T07:07:51;101907.13;;;24.10;45.91
81480;BME280;70893;52.500;5.456;2023-07-08T07:10:18;101893.00;;;24.20;46.90
81480;BME280;70893;52.500;5.456;2023-07-08T07:12:43;101899.03;;;24.52;44.63
81480;BME280;70893;52.500;5.456;2023-07-08T07:15:09;101892.22;;;24.79;44.38
81480;BME280;70893;52.500;5.456;2023-07-08T07:17:34;101900.19;;;24.72;43.56
81480;BME280;70893;52.500;5.456;2023-07-08T07:20:01;101893.22;;;24.45;44.52
81480;BME280;70893;52.500;5.456;2023-07-08T07:22:27;101895.16;;;24.95;43.46
81480;BME280;70893;52.500;5.456;2023-07-08T07:24:54;101901.13;;;25.85;42.81
81480;BME280;70893;52.500;5.456;2023-07-08T07:27:20;101901.84;;;26.68;39.48
81480;BME280;70893;52.500;5.456;2023-07-08T07:29:47;101914.41;;;27.06;40.78
81480;BME280;70893;52.500;5.456;2023-07-08T07:32:14;101915.91;;;27.59;41.82
81480;BME280;70893;52.500;5.456;2023-07-08T07:34:40;101921.38;;;27.56;39.22
81480;BME280;70893;52.500;5.456;2023-07-08T07:37:06;101923.94;;;27.64;38.58
81480;BME280;70893;52.500;5.456;2023-07-08T07:39:35;101918.22;;;28.17;38.02
81480;BME280;70893;52.500;5.456;2023-07-08T07:42:01;101927.41;;;28.05;37.41
81480;BME280;70893;52.500;5.456;2023-07-08T07:44:26;101922.13;;;27.40;38.65
81480;BME280;70893;52.500;5.456;2023-07-08T07:46:52;101922.97;;;27.29;39.77
81480;BME280;70893;52.500;5.456;2023-07-08T07:49:19;101923.16;;;27.64;38.05
81480;BME280;70893;52.500;5.456;2023-07-08T07:51:45;101916.75;;;27.32;38.42
81480;BME280;70893;52.500;5.456;2023-07-08T07:54:10;101918.06;;;27.66;39.04
81480;BME280;70893;52.500;5.456;2023-07-08T07:56:35;101905.19;;;28.02;37.75
81480;BME280;70893;52.500;5.456;2023-07-08T07:59:01;101902.06;;;29.29;36.16
81480;BME280;70893;52.500;5.456;2023-07-08T08:01:26;101902.72;;;28.48;36.38
81480;BME280;70893;52.500;5.456;2023-07-08T08:03:51;101893.13;;;27.94;37.07
81480;BME280;70893;52.500;5.456;2023-07-08T08:06:18;101906.56;;;27.64;38.25
81480;BME280;70893;52.500;5.456;2023-07-08T08:08:44;101902.41;;;28.34;36.36
81480;BME280;70893;52.500;5.456;2023-07-08T08:11:10;101901.78;;;28.95;36.04
81480;BME280;70893;52.500;5.456;2023-07-08T08:13:35;101911.75;;;28.80;35.91
81480;BME280;70893;52.500;5.456;2023-07-08T08:16:02;101905.25;;;28.72;34.89
81480;BME280;70893;52.500;5.456;2023-07-08T08:18:27;101909.38;;;28.98;35.09
81480;BME280;70893;52.500;5.456;2023-07-08T08:20:53;101900.38;;;29.44;34.52
81480;BME280;70893;52.500;5.456;2023-07-08T08:23:18;101899.25;;;30.67;35.39
81480;BME280;70893;52.500;5.456;2023-07-08T08:25:43;101901.94;;;30.33;33.21
81480;BME280;70893;52.500;5.456;2023-07-08T08:28:09;101884.28;;;30.22;33.87
81480;BME280;70893;52.500;5.456;2023-07-08T08:30:34;101889.84;;;30.49;34.46
81480;BME280;70893;52.500;5.456;2023-07-08T08:33:00;101895.13;;;30.04;34.23
81480;BME280;70893;52.500;5.456;2023-07-08T08:35:26;101890.91;;;30.14;33.20
81480;BME280;70893;52.500;5.456;2023-07-08T08:37:52;101892.34;;;30.57;33.96
81480;BME280;70893;52.500;5.456;2023-07-08T08:40:19;101892.56;;;31.02;32.73
81480;BME280;70893;52.500;5.456;2023-07-08T08:43:06;101884.25;;;31.84;33.33
81480;BME280;70893;52.500;5.456;2023-07-08T08:48:30;101891.13;;;30.55;33.50
81480;BME280;70893;52.500;5.456;2023-07-08T08:51:24;101884.50;;;30.63;34.16
81480;BME280;70893;52.500;5.456;2023-07-08T08:53:53;101897.75;;;31.78;33.74
81480;BME280;70893;52.500;5.456;2023-07-08T08:56:24;101899.84;;;32.44;31.23
81480;BME280;70893;52.500;5.456;2023-07-08T09:01:33;101889.03;;;33.19;29.72
81480;BME280;70893;52.500;5.456;2023-07-08T09:04:03;101885.53;;;33.72;27.59
81480;BME280;70893;52.500;5.456;2023-07-08T09:06:32;101889.28;;;32.78;30.83
81480;BME280;70893;52.500;5.456;2023-07-08T09:09:19;101890.53;;;32.95;31.97
81480;BME280;70893;52.500;5.456;2023-07-08T09:11:58;101885.13;;;32.47;29.91
81480;BME280;70893;52.500;5.456;2023-07-08T09:14:27;101894.97;;;32.33;29.76
81480;BME280;70893;52.500;5.456;2023-07-08T09:19:47;101894.50;;;32.21;30.53
81480;BME280;70893;52.500;5.456;2023-07-08T09:22:24;101893.34;;;32.25;30.37
81480;BME280;70893;52.500;5.456;2023-07-08T09:24:56;101896.47;;;32.83;30.42
81480;BME280;70893;52.500;5.456;2023-07-08T09:27:24;101906.34;;;32.62;29.81
81480;BME280;70893;52.500;5.456;2023-07-08T09:29:50;101905.69;;;32.97;31.12
81480;BME280;70893;52.500;5.456;2023-07-08T09:32:19;101896.84;;;32.77;28.52
81480;BME280;70893;52.500;5.456;2023-07-08T09:34:56;101894.50;;;32.90;29.95
81480;BME280;70893;52.500;5.456;2023-07-08T09:39:51;101890.66;;;33.31;30.41
81480;BME280;70893;52.500;5.456;2023-07-08T09:42:17;101889.31;;;32.89;29.73
81480;BME280;70893;52.500;5.456;2023-07-08T09:44:45;101892.59;;;33.09;31.10
81480;BME280;70893;52.500;5.456;2023-07-08T09:47:22;101888.34;;;33.72;29.15
81480;BME280;70893;52.500;5.456;2023-07-08T09:49:48;101895.88;;;34.33;28.45
81480;BME280;70893;52.500;5.456;2023-07-08T09:52:13;101898.22;;;34.48;32.86
81480;BME280;70893;52.500;5.456;2023-07-08T09:54:41;101890.84;;;35.05;26.52
81480;BME280;70893;52.500;5.456;2023-07-08T09:57:32;101889.88;;;35.36;26.65
81480;BME280;70893;52.500;5.456;2023-07-08T10:00:02;101887.31;;;34.97;26.28
81480;BME280;70893;52.500;5.456;2023-07-08T10:02:38;101898.66;;;35.38;26.87
81480;BME280;70893;52.500;5.456;2023-07-08T10:05:19;101892.25;;;35.42;27.20
81480;BME280;70893;52.500;5.456;2023-07-08T10:07:48;101898.75;;;35.24;26.88
81480;BME280;70893;52.500;5.456;2023-07-08T10:10:17;101895.63;;;35.11;26.51
81480;BME280;70893;52.500;5.456;2023-07-08T10:12:52;101909.72;;;35.56;25.99
81480;BME280;70893;52.500;5.456;2023-07-08T10:15:38;101905.28;;;35.66;25.99
81480;BME280;70893;52.500;5.456;2023-07-08T10:18:13;101909.44;;;35.44;26.48
81480;BME280;70893;52.500;5.456;2023-07-08T10:21:08;101899.19;;;35.23;27.08
81480;BME280;70893;52.500;5.456;2023-07-08T10:23:51;101889.16;;;35.22;25.31
81480;BME280;70893;52.500;5.456;2023-07-08T10:26:26;101893.91;;;35.35;26.23
81480;BME280;70893;52.500;5.456;2023-07-08T10:29:18;101888.16;;;35.61;27.31
81480;BME280;70893;52.500;5.456;2023-07-08T10:37:07;101896.31;;;35.33;26.79
81480;BME280;70893;52.500;5.456;2023-07-08T10:39:51;101880.03;;;35.14;26.35
81480;BME280;70893;52.500;5.456;2023-07-08T10:45:32;101888.63;;;34.67;26.14
81480;BME280;70893;52.500;5.456;2023-07-08T10:53:41;101888.06;;;35.71;28.64
81480;BME280;70893;52.500;5.456;2023-07-08T10:56:20;101881.91;;;35.35;26.14
81480;BME280;70893;52.500;5.456;2023-07-08T10:59:22;101886.66;;;34.64;27.56
81480;BME280;70893;52.500;5.456;2023-07-08T11:02:37;101889.03;;;35.43;29.06
81480;BME280;70893;52.500;5.456;2023-07-08T11:07:43;101874.28;;;34.58;26.64
81480;BME280;70893;52.500;5.456;2023-07-08T11:12:45;101865.59;;;35.23;26.27
81480;BME280;70893;52.500;5.456;2023-07-08T11:15:18;101860.03;;;35.15;27.00
81480;BME280;70893;52.500;5.456;2023-07-08T11:17:49;101865.03;;;35.94;26.67
81480;BME280;70893;52.500;5.456;2023-07-08T11:20:17;101851.66;;;35.12;26.47
81480;BME280;70893;52.500;5.456;2023-07-08T11:22:51;101861.94;;;35.29;26.06
81480;BME280;70893;52.500;5.456;2023-07-08T11:25:20;101853.94;;;35.84;24.87
81480;BME280;70893;52.500;5.456;2023-07-08T11:27:50;101863.91;;;35.88;25.44
81480;BME280;70893;52.500;5.456;2023-07-08T11:30:21;101856.47;;;35.04;24.13
81480;BME280;70893;52.500;5.456;2023-07-08T11:32:48;101853.19;;;34.28;25.68
81480;BME280;70893;52.500;5.456;2023-07-08T11:35:21;101856.41;;;33.87;27.71
81480;BME280;70893;52.500;5.456;2023-07-08T11:37:48;101858.03;;;33.96;27.00
81480;BME280;70893;52.500;5.456;2023-07-08T11:40:19;101852.06;;;33.69;26.09
81480;BME280;70893;52.500;5.456;2023-07-08T11:42:51;101843.66;;;33.79;26.50
81480;BME280;70893;52.500;5.456;2023-07-08T11:45:32;101850.47;;;33.85;25.96
81480;BME280;70893;52.500;5.456;2023-07-08T11:48:29;101840.25;;;34.78;25.51
81480;BME280;70893;52.500;5.456;2023-07-08T11:50:56;101844.03;;;34.24;25.27
81480;BME280;70893;52.500;5.456;2023-07-08T12:03:47;101824.88;;;33.98;26.25
81480;BME280;70893;52.500;5.456;2023-07-08T12:08:54;101831.97;;;35.26;26.92
81480;BME280;70893;52.500;5.456;2023-07-08T12:11:25;101836.09;;;35.04;25.43
81480;BME280;70893;52.500;5.456;2023-07-08T12:13:51;101830.44;;;35.70;24.89
81480;BME280;70893;52.500;5.456;2023-07-08T12:16:17;101828.13;;;35.58;24.38
81480;BME280;70893;52.500;5.456;2023-07-08T12:18:43;101825.84;;;35.42;23.87
81480;BME280;70893;52.500;5.456;2023-07-08T12:21:12;101830.84;;;35.16;24.79
81480;BME280;70893;52.500;5.456;2023-07-08T12:23:44;101827.97;;;34.43;24.89
81480;BME280;70893;52.500;5.456;2023-07-08T12:26:10;101823.69;;;34.06;25.59
81480;BME280;70893;52.500;5.456;2023-07-08T12:28:38;101818.78;;;34.46;25.11
81480;BME280;70893;52.500;5.456;2023-07-08T12:31:24;101814.13;;;34.03;26.00
81480;BME280;70893;52.500;5.456;2023-07-08T12:33:50;101810.03;;;34.44;25.36
81480;BME280;70893;52.500;5.456;2023-07-08T12:36:24;101810.31;;;34.71;26.74
81480;BME280;70893;52.500;5.456;2023-07-08T12:38:52;101804.16;;;34.09;25.60
81480;BME280;70893;52.500;5.456;2023-07-08T12:41:22;101804.19;;;33.59;26.44
81480;BME280;70893;52.500;5.456;2023-07-08T12:43:48;101804.16;;;33.34;28.32
81480;BME280;70893;52.500;5.456;2023-07-08T12:46:15;101808.19;;;33.58;28.25
81480;BME280;70893;52.500;5.456;2023-07-08T12:48:42;101805.75;;;33.50;27.24
81480;BME280;70893;52.500;5.456;2023-07-08T12:51:23;101802.16;;;33.99;29.07
81480;BME280;70893;52.500;5.456;2023-07-08T12:53:50;101795.78;;;34.09;25.55
81480;BME280;70893;52.500;5.456;2023-07-08T12:56:16;101804.97;;;33.81;26.92
81480;BME280;70893;52.500;5.456;2023-07-08T12:58:45;101810.97;;;33.76;27.94
81480;BME280;70893;52.500;5.456;2023-07-08T13:01:23;101797.41;;;33.71;27.08
81480;BME280;70893;52.500;5.456;2023-07-08T13:03:51;101800.19;;;33.82;26.76
81480;BME280;70893;52.500;5.456;2023-07-08T13:06:20;101795.41;;;33.39;28.47
81480;BME280;70893;52.500;5.456;2023-07-08T13:08:47;101798.63;;;33.45;28.10
81480;BME280;70893;52.500;5.456;2023-07-08T13:11:16;101793.78;;;33.13;29.36
81480;BME280;70893;52.500;5.456;2023-07-08T13:14:04;101801.22;;;32.63;29.32
81480;BME280;70893;52.500;5.456;2023-07-08T13:16:33;101799.84;;;32.28;27.69
81480;BME280;70893;52.500;5.456;2023-07-08T13:18:59;101793.88;;;32.29;29.44
81480;BME280;70893;52.500;5.456;2023-07-08T13:21:25;101796.63;;;32.19;27.86
81480;BME280;70893;52.500;5.456;2023-07-08T13:23:53;101803.50;;;32.43;30.00
81480;BME280;70893;52.500;5.456;2023-07-08T13:26:22;101789.94;;;32.34;30.43
81480;BME280;70893;52.500;5.456;2023-07-08T13:28:48;101797.00;;;32.17;29.47
81480;BME280;70893;52.500;5.456;2023-07-08T13:31:17;101799.41;;;32.26;30.47
81480;BME280;70893;52.500;5.456;2023-07-08T13:33:48;101795.06;;;32.28;29.17
81480;BME280;70893;52.500;5.456;2023-07-08T13:36:16;101792.28;;;32.28;27.59
81480;BME280;70893;52.500;5.456;2023-07-08T13:38:42;101791.50;;;32.31;31.29
81480;BME280;70893;52.500;5.456;2023-07-08T13:41:08;101795.44;;;32.23;28.54
81480;BME280;70893;52.500;5.456;2023-07-08T13:43:38;101796.66;;;32.29;28.99
81480;BME280;70893;52.500;5.456;2023-07-08T13:46:06;101794.25;;;32.24;28.49
81480;BME280;70893;52.500;5.456;2023-07-08T13:48:52;101794.66;;;32.26;28.30